West Point, Illinois
Current Conditions -  °F | °C
As of 11:15 AM on Friday 24 Oct 2014 (Local Time) from KEOK Reporting Station
Moderate Fog Moderate Fog  
Wind Chill: 55°   Ceiling: 200
Heat Index: 55°   Visibility: 0mi
Dew Point: 55°   Wind: 7mph
Humidity: 100%   Direction: NA
Pressure: 30.07"   Gusts: NA
Location:  40.26°N, 91.18°W
Report Text: KEOK 241615Z AUTO VRB06KT M1/4SM FG OVC002 13/13 A3007 RMK AO2
Loading
Personal Weather Stations






























Interactive Weather Map
Tropical Storm Tracking
New forecast layout! Learn more

10-Day Weather Forecast

Advertisements
Track Severe Weather on mobile